Time;durP1;ratioP1;P1;durP2;ratioP2;P2;SDS_P1;SDS_P2;PMS_P1;PMS_P2;Temp;Humidity;BMP_temperature;BMP_pressure;BME280_temperature;BME280_humidity;BME280_pressure;Samples;Min_cycle;Max_cycle;Signal;HPM_P1;HPM_P2
2021/12/14 00:00:16;;;;;;;8.18;7.47;;;6.20;99.90;;;;;;5092808;28;20213;-84
2021/12/14 00:02:46;;;;;;;8.25;7.55;;;6.20;99.90;;;;;;5092674;28;20201;-85
2021/12/14 00:05:18;;;;;;;8.50;7.70;;;6.20;99.90;;;;;;5092356;28;20240;-85
2021/12/14 00:07:46;;;;;;;9.60;8.60;;;6.20;99.90;;;;;;5097515;28;20246;-85
2021/12/14 00:10:32;;;;;;;8.57;7.78;;;6.20;99.90;;;;;;5107821;28;20232;-90
2021/12/14 00:13:12;;;;;;;8.27;7.43;;;6.20;99.90;;;;;;5111897;28;20214;-90
2021/12/14 00:15:41;;;;;;;9.48;8.02;;;6.20;99.90;;;;;;5096126;28;20200;-90
2021/12/14 00:18:13;;;;;;;9.23;7.65;;;6.20;99.90;;;;;;5097582;28;20208;-90
2021/12/14 00:20:45;;;;;;;9.88;8.82;;;6.20;99.90;;;;;;5096146;28;20201;-90
2021/12/14 00:26:03;;;;;;;9.57;8.60;;;6.30;99.90;;;;;;5077417;28;20232;-84
2021/12/14 00:28:35;;;;;;;8.68;7.93;;;6.30;99.90;;;;;;5095490;28;20259;-85
2021/12/14 00:31:09;;;;;;;9.65;8.50;;;6.30;99.90;;;;;;5095400;28;20284;-85
2021/12/14 00:33:40;;;;;;;9.52;8.60;;;6.30;99.90;;;;;;5096506;28;20207;-84
2021/12/14 00:36:11;;;;;;;8.65;7.32;;;6.30;99.90;;;;;;5095701;28;20312;-85
2021/12/14 00:38:42;;;;;;;9.65;8.68;;;6.30;99.90;;;;;;5096176;28;20260;-85
2021/12/14 00:41:14;;;;;;;8.35;7.53;;;6.30;99.90;;;;;;5095630;28;20200;-85
2021/12/14 00:43:46;;;;;;;8.25;7.45;;;6.30;99.90;;;;;;5095533;28;20292;-85
2021/12/14 00:46:17;;;;;;;8.82;7.93;;;6.40;99.90;;;;;;5095301;28;20284;-85
2021/12/14 00:48:47;;;;;;;8.90;8.05;;;6.40;99.90;;;;;;5095879;28;20204;-84
2021/12/14 00:51:20;;;;;;;8.13;7.25;;;6.40;99.90;;;;;;5101760;28;20247;-90
2021/12/14 00:53:50;;;;;;;7.97;7.28;;;6.40;99.90;;;;;;5098356;28;20223;-90
2021/12/14 00:56:19;;;;;;;8.77;7.95;;;6.40;99.90;;;;;;5095790;28;20292;-91
2021/12/14 00:58:49;;;;;;;8.82;7.93;;;6.30;99.90;;;;;;5095112;28;20205;-91
2021/12/14 01:01:22;;;;;;;8.05;7.38;;;6.30;99.90;;;;;;5095967;28;20234;-91
2021/12/14 01:03:55;;;;;;;8.57;7.57;;;6.30;99.90;;;;;;5095471;28;20360;-91
2021/12/14 01:06:26;;;;;;;7.63;6.93;;;6.30;99.90;;;;;;5095547;28;20272;-91
2021/12/14 01:08:55;;;;;;;7.72;7.03;;;6.30;99.90;;;;;;5094761;28;20200;-91
2021/12/14 01:11:30;;;;;;;6.90;6.28;;;6.30;99.90;;;;;;5095196;28;20284;-91
2021/12/14 01:14:05;;;;;;;7.18;6.57;;;6.30;99.90;;;;;;5094989;28;20192;-90
2021/12/14 01:16:51;;;;;;;8.27;7.53;;;6.30;99.90;;;;;;5097292;28;20249;-91
2021/12/14 01:19:25;;;;;;;7.78;7.13;;;6.30;99.90;;;;;;5097215;28;20238;-91
2021/12/14 01:22:17;;;;;;;8.35;7.55;;;6.30;99.90;;;;;;5095401;28;20195;-91
2021/12/14 01:27:45;;;;;;;8.50;7.70;;;6.30;99.90;;;;;;5094198;28;20248;-91
2021/12/14 01:30:22;;;;;;;9.07;8.27;;;6.30;99.90;;;;;;5094939;28;20228;-91
2021/12/14 01:32:53;;;;;;;8.15;7.35;;;6.30;99.90;;;;;;5095044;28;20272;-91
2021/12/14 01:35:28;;;;;;;7.32;6.63;;;6.40;99.90;;;;;;5094757;28;20235;-91
2021/12/14 01:38:16;;;;;;;8.05;7.35;;;6.40;99.90;;;;;;5095057;28;20296;-90
2021/12/14 01:40:54;;;;;;;8.30;7.47;;;6.40;99.90;;;;;;5093699;28;20208;-90
2021/12/14 01:43:27;;;;;;;9.70;8.55;;;6.40;99.90;;;;;;5094904;28;20207;-91
2021/12/14 01:45:59;;;;;;;7.32;6.72;;;6.40;99.90;;;;;;5095096;28;20247;-91
2021/12/14 01:48:27;;;;;;;7.88;7.07;;;6.40;99.90;;;;;;5094843;28;20200;-85
2021/12/14 01:51:00;;;;;;;8.25;7.47;;;6.40;99.90;;;;;;5094203;28;20205;-85
2021/12/14 01:53:28;;;;;;;8.05;7.35;;;6.40;99.90;;;;;;5094595;28;20223;-85
2021/12/14 01:56:02;;;;;;;11.45;8.80;;;6.50;99.90;;;;;;5094799;28;20311;-85
2021/12/14 01:58:35;;;;;;;8.45;7.65;;;6.50;99.90;;;;;;5094250;28;20283;-84
2021/12/14 02:01:11;;;;;;;8.23;7.35;;;6.50;99.90;;;;;;5094799;28;20269;-85
2021/12/14 02:03:44;;;;;;;7.82;7.07;;;6.50;99.90;;;;;;5094255;28;20200;-85
2021/12/14 02:06:21;;;;;;;7.20;6.50;;;6.50;99.90;;;;;;5094319;28;20324;-84
2021/12/14 02:08:56;;;;;;;7.65;6.88;;;6.50;99.90;;;;;;5093963;28;20210;-85
2021/12/14 02:11:30;;;;;;;8.57;7.78;;;6.50;99.90;;;;;;5094301;28;20219;-85
2021/12/14 02:14:01;;;;;;;7.75;7.05;;;6.50;99.90;;;;;;5094251;28;20204;-84
2021/12/14 02:16:32;;;;;;;8.48;7.68;;;6.50;99.90;;;;;;5094017;28;20238;-84
2021/12/14 02:19:05;;;;;;;8.57;7.70;;;6.50;99.90;;;;;;5093564;28;20291;-84
2021/12/14 02:21:35;;;;;;;8.02;7.32;;;6.50;99.90;;;;;;5093816;28;20192;-84
2021/12/14 02:24:07;;;;;;;8.65;7.55;;;6.60;99.90;;;;;;5094280;28;20247;-84
2021/12/14 02:26:43;;;;;;;9.77;8.23;;;6.60;99.90;;;;;;5093558;28;20315;-84
2021/12/14 02:29:22;;;;;;;8.70;7.85;;;6.60;99.90;;;;;;5093955;28;20219;-85
2021/12/14 02:32:02;;;;;;;7.55;6.90;;;6.60;99.90;;;;;;5093766;28;20265;-85
2021/12/14 02:34:30;;;;;;;8.35;6.80;;;6.60;99.90;;;;;;5093419;28;20264;-84
2021/12/14 02:37:03;;;;;;;11.60;7.65;;;6.60;99.90;;;;;;5093833;28;20213;-85
2021/12/14 02:39:47;;;;;;;9.63;7.82;;;6.60;99.90;;;;;;5093031;28;20208;-84
2021/12/14 02:42:24;;;;;;;7.75;6.95;;;6.60;99.90;;;;;;5093756;28;20189;-85
2021/12/14 02:44:55;;;;;;;8.30;7.32;;;6.60;99.90;;;;;;5093203;28;20227;-85
2021/12/14 02:47:24;;;;;;;6.32;5.82;;;6.70;99.90;;;;;;5093898;28;20270;-85
2021/12/14 02:49:53;;;;;;;8.70;7.53;;;6.70;99.90;;;;;;5093239;28;20205;-84
2021/12/14 02:52:31;;;;;;;7.88;7.15;;;6.60;99.90;;;;;;5092806;28;20308;-85
2021/12/14 02:55:03;;;;;;;7.13;6.53;;;6.70;99.90;;;;;;5092947;28;20201;-85
2021/12/14 02:57:34;;;;;;;8.07;6.88;;;6.70;99.90;;;;;;5092944;28;20223;-85
2021/12/14 03:00:08;;;;;;;8.75;6.82;;;6.70;99.90;;;;;;5089670;28;20249;-85
2021/12/14 03:02:36;;;;;;;6.40;5.80;;;6.60;99.90;;;;;;5093715;28;20279;-85
2021/12/14 03:05:08;;;;;;;10.73;7.55;;;6.70;99.90;;;;;;5093389;28;20211;-85
2021/12/14 03:07:43;;;;;;;8.77;7.72;;;6.70;99.90;;;;;;5093186;28;20299;-84
2021/12/14 03:10:31;;;;;;;7.50;6.88;;;6.70;99.90;;;;;;5092825;28;20239;-84
2021/12/14 03:13:06;;;;;;;10.07;8.00;;;6.70;99.90;;;;;;5072977;28;20289;-85
2021/12/14 03:15:42;;;;;;;7.30;6.60;;;6.70;99.90;;;;;;5080612;28;20200;-85
2021/12/14 03:18:14;;;;;;;12.18;7.97;;;6.70;99.90;;;;;;5093552;28;20226;-84
2021/12/14 03:20:45;;;;;;;7.90;7.20;;;6.70;99.90;;;;;;5092715;28;20304;-84
2021/12/14 03:23:18;;;;;;;7.22;6.63;;;6.70;99.90;;;;;;5093500;28;20304;-85
2021/12/14 03:25:50;;;;;;;7.28;6.55;;;6.70;99.90;;;;;;5092404;28;20287;-85
2021/12/14 03:28:20;;;;;;;10.65;7.30;;;6.70;99.90;;;;;;5092761;28;20200;-85
2021/12/14 03:31:03;;;;;;;8.68;7.80;;;6.70;99.90;;;;;;5092771;28;20200;-85
2021/12/14 03:33:38;;;;;;;6.55;5.97;;;6.70;99.90;;;;;;5093148;28;20216;-84
2021/12/14 03:36:43;;;;;;;6.93;6.32;;;6.70;99.90;;;;;;5091193;28;20246;-84
2021/12/14 03:39:16;;;;;;;6.53;5.93;;;6.60;99.90;;;;;;5092682;28;20275;-85
2021/12/14 03:41:47;;;;;;;6.82;6.22;;;6.60;99.90;;;;;;5093277;28;20287;-85
2021/12/14 03:44:21;;;;;;;6.88;6.25;;;6.70;99.90;;;;;;5092959;28;20235;-85
2021/12/14 03:46:55;;;;;;;5.82;5.35;;;6.70;99.90;;;;;;5093826;28;20316;-85
2021/12/14 03:49:29;;;;;;;6.63;6.05;;;6.60;99.90;;;;;;5096544;28;20215;-85
2021/12/14 03:51:57;;;;;;;8.73;6.43;;;6.70;99.90;;;;;;5096590;28;20200;-85
2021/12/14 03:54:29;;;;;;;6.60;6.00;;;6.60;99.90;;;;;;5097063;28;20263;-85
2021/12/14 03:56:57;;;;;;;6.78;6.15;;;6.60;99.90;;;;;;5096389;28;20220;-84
2021/12/14 03:59:27;;;;;;;6.53;5.93;;;6.60;99.90;;;;;;5096259;28;20220;-84
2021/12/14 04:01:58;;;;;;;7.43;6.72;;;6.50;99.90;;;;;;5096857;28;20243;-85
2021/12/14 04:04:31;;;;;;;8.05;7.15;;;6.50;99.90;;;;;;5096860;28;20262;-84
2021/12/14 04:07:01;;;;;;;7.57;6.80;;;6.40;99.90;;;;;;5096594;28;20222;-84
2021/12/14 04:09:34;;;;;;;6.80;6.20;;;6.40;99.90;;;;;;5096569;28;20223;-84
2021/12/14 04:12:05;;;;;;;14.63;6.25;;;6.40;99.90;;;;;;5096126;28;20224;-84
2021/12/14 04:14:38;;;;;;;7.22;6.55;;;6.40;99.90;;;;;;5096080;28;20204;-84
2021/12/14 04:17:08;;;;;;;10.15;8.15;;;6.40;99.90;;;;;;5096287;28;20255;-85
2021/12/14 04:19:39;;;;;;;8.25;7.55;;;6.40;99.90;;;;;;5095699;28;20235;-85
2021/12/14 04:22:13;;;;;;;7.78;7.03;;;6.50;99.90;;;;;;5096943;28;20201;-84
2021/12/14 04:24:45;;;;;;;6.75;6.15;;;6.50;99.90;;;;;;5095869;28;20260;-85
2021/12/14 04:27:18;;;;;;;7.53;6.82;;;6.50;99.90;;;;;;5096141;28;20312;-85
2021/12/14 04:29:47;;;;;;;8.00;7.20;;;6.60;99.90;;;;;;5095586;28;20291;-85
2021/12/14 04:32:16;;;;;;;6.28;5.78;;;6.60;99.90;;;;;;5096083;28;20228;-85
2021/12/14 04:34:45;;;;;;;7.20;6.43;;;6.60;99.90;;;;;;5096128;28;20266;-84
2021/12/14 04:37:16;;;;;;;6.18;5.60;;;6.60;99.90;;;;;;5095935;28;20297;-84
2021/12/14 04:39:51;;;;;;;8.02;6.18;;;6.60;99.90;;;;;;5095526;28;20214;-84
2021/12/14 04:53:42;;;;;;;5.93;5.40;;;6.70;99.90;;;;;;5095519;28;20217;-84
2021/12/14 04:56:16;;;;;;;6.65;5.95;;;6.70;99.90;;;;;;5095257;28;20228;-85
2021/12/14 04:58:52;;;;;;;5.97;5.43;;;6.80;99.90;;;;;;5095221;28;20200;-85
2021/12/14 05:01:21;;;;;;;5.13;4.72;;;6.80;99.90;;;;;;5093284;28;20279;-85
2021/12/14 05:03:52;;;;;;;6.22;5.50;;;6.70;99.90;;;;;;5095270;28;20296;-85
2021/12/14 05:06:24;;;;;;;6.38;5.75;;;6.80;99.90;;;;;;5075542;28;20263;-85
2021/12/14 05:11:43;;;;;;;6.03;5.50;;;6.80;99.90;;;;;;5095894;28;20283;-84
2021/12/14 05:14:12;;;;;;;9.40;8.00;;;6.80;99.90;;;;;;5095030;28;20220;-85
2021/12/14 05:16:41;;;;;;;6.68;6.03;;;6.70;99.90;;;;;;5095059;28;20306;-85
2021/12/14 05:19:31;;;;;;;6.55;5.95;;;6.70;99.90;;;;;;5095057;28;20223;-85
2021/12/14 05:22:04;;;;;;;6.50;5.93;;;6.60;99.90;;;;;;5095265;28;20196;-84
2021/12/14 05:24:32;;;;;;;6.25;5.75;;;6.70;99.90;;;;;;5095438;28;20216;-84
2021/12/14 05:27:06;;;;;;;6.57;5.93;;;6.70;99.90;;;;;;5094216;28;20212;-84
2021/12/14 05:29:35;;;;;;;7.38;6.00;;;6.70;99.90;;;;;;5095247;28;20196;-84
2021/12/14 05:32:06;;;;;;;6.13;5.60;;;6.70;99.90;;;;;;5095115;28;20239;-85
2021/12/14 05:34:37;;;;;;;6.35;5.75;;;6.70;99.90;;;;;;5095140;28;20490;-84
2021/12/14 05:37:07;;;;;;;6.10;5.60;;;6.80;99.90;;;;;;5094705;28;20316;-84
2021/12/14 05:39:50;;;;;;;6.95;5.57;;;6.80;99.90;;;;;;5094889;28;20219;-84
2021/12/14 05:45:11;;;;;;;5.75;5.25;;;6.90;99.90;;;;;;5094137;28;20215;-84
2021/12/14 05:47:46;;;;;;;5.88;5.35;;;6.80;99.90;;;;;;5094920;28;20227;-84
2021/12/14 05:50:17;;;;;;;6.60;5.95;;;6.90;99.90;;;;;;5094152;28;20198;-84
2021/12/14 05:52:46;;;;;;;7.03;5.00;;;6.90;99.90;;;;;;5095071;28;20201;-84
2021/12/14 05:55:16;;;;;;;5.18;4.75;;;6.90;99.90;;;;;;5094388;28;20280;-84
2021/12/14 05:57:46;;;;;;;5.72;5.22;;;6.90;99.90;;;;;;5094805;28;20235;-84
2021/12/14 06:00:17;;;;;;;5.95;5.43;;;6.90;99.90;;;;;;5093794;28;20212;-83
2021/12/14 06:02:47;;;;;;;5.70;5.15;;;6.90;99.90;;;;;;5074787;28;20197;-84
2021/12/14 06:05:19;;;;;;;6.25;5.65;;;6.80;99.90;;;;;;5090586;28;20287;-84
2021/12/14 06:07:48;;;;;;;6.35;5.72;;;6.80;99.90;;;;;;5094304;28;20247;-84
2021/12/14 06:10:20;;;;;;;7.00;6.30;;;6.80;99.90;;;;;;5093207;28;20271;-84
2021/12/14 06:12:51;;;;;;;6.00;5.50;;;6.90;99.90;;;;;;5093952;28;20212;-84
2021/12/14 06:15:26;;;;;;;6.80;5.60;;;6.80;99.90;;;;;;5094208;28;20216;-84
2021/12/14 06:17:56;;;;;;;6.60;5.15;;;6.80;99.90;;;;;;5094036;28;20252;-84
2021/12/14 06:20:26;;;;;;;5.40;4.90;;;6.80;99.90;;;;;;5094103;28;20226;-84
2021/12/14 06:22:55;;;;;;;6.20;5.57;;;6.80;99.90;;;;;;5094103;28;20223;-84
2021/12/14 06:25:28;;;;;;;6.10;5.60;;;6.80;99.90;;;;;;5093899;28;20280;-84
2021/12/14 06:28:01;;;;;;;6.22;5.63;;;6.80;99.90;;;;;;5093890;28;20224;-84
2021/12/14 06:30:32;;;;;;;7.07;6.35;;;6.80;99.90;;;;;;5093753;28;20208;-84
2021/12/14 06:33:04;;;;;;;6.57;5.97;;;6.80;99.90;;;;;;5093691;28;20208;-84
2021/12/14 06:35:37;;;;;;;7.40;6.35;;;6.80;99.90;;;;;;5093345;28;20284;-84
2021/12/14 06:38:24;;;;;;;7.13;6.53;;;6.90;99.90;;;;;;5094046;28;20200;-92
2021/12/14 06:41:06;;;;;;;5.78;5.28;;;6.80;99.90;;;;;;5093282;28;20192;-91
2021/12/14 06:43:40;;;;;;;7.63;6.93;;;6.80;99.90;;;;;;5093799;28;20251;-91
2021/12/14 06:46:11;;;;;;;6.90;6.28;;;6.80;99.90;;;;;;5097314;28;20215;-91
2021/12/14 06:49:06;;;;;;;7.15;6.45;;;6.80;99.90;;;;;;5112307;28;20272;-91
2021/12/14 06:51:39;;;;;;;7.32;6.70;;;6.90;99.90;;;;;;5093873;28;20295;-91
2021/12/14 06:54:32;;;;;;;7.10;6.50;;;6.90;99.90;;;;;;5097316;28;20402;-88
2021/12/14 06:57:12;;;;;;;7.43;6.68;;;6.90;99.90;;;;;;5093770;28;20224;-84
2021/12/14 06:59:42;;;;;;;6.53;5.95;;;6.90;99.90;;;;;;5092584;28;20227;-86
2021/12/14 07:02:13;;;;;;;6.80;6.18;;;6.90;99.90;;;;;;5093384;28;20197;-86
2021/12/14 07:04:48;;;;;;;8.20;7.35;;;6.90;99.90;;;;;;5093370;28;20208;-86
2021/12/14 07:07:19;;;;;;;7.90;7.20;;;6.90;99.90;;;;;;5093178;28;20232;-86
2021/12/14 07:09:51;;;;;;;11.18;6.88;;;7.00;99.90;;;;;;5093135;28;20245;-86
2021/12/14 07:12:21;;;;;;;6.35;5.78;;;7.00;99.90;;;;;;5093510;28;20209;-86
2021/12/14 07:15:10;;;;;;;6.50;5.90;;;7.00;99.90;;;;;;5094320;28;20255;-86
2021/12/14 07:17:43;;;;;;;6.90;6.15;;;7.00;99.90;;;;;;5094090;28;20235;-87
2021/12/14 07:20:25;;;;;;;9.70;7.00;;;7.00;99.90;;;;;;5093005;28;20200;-86
2021/12/14 07:22:56;;;;;;;7.20;6.60;;;7.00;99.90;;;;;;5098022;28;20201;-86
2021/12/14 07:25:29;;;;;;;8.35;6.80;;;7.00;99.90;;;;;;5097673;28;20196;-86
2021/12/14 07:28:00;;;;;;;6.40;5.80;;;7.00;99.90;;;;;;5101556;28;20204;-86
2021/12/14 07:30:36;;;;;;;6.32;5.72;;;7.00;99.90;;;;;;5097059;28;20275;-86
2021/12/14 07:33:10;;;;;;;8.55;6.07;;;7.00;99.90;;;;;;5096783;28;20222;-85
2021/12/14 07:36:20;;;;;;;7.18;6.30;;;7.00;99.90;;;;;;5095270;28;20230;-84
2021/12/14 07:38:51;;;;;;;6.30;5.78;;;7.00;99.90;;;;;;5096416;28;20200;-84
2021/12/14 07:41:26;;;;;;;9.70;6.32;;;7.10;99.90;;;;;;5097552;28;20204;-85
2021/12/14 07:43:59;;;;;;;6.18;5.38;;;7.10;99.90;;;;;;5096740;28;20262;-85
2021/12/14 07:46:37;;;;;;;7.03;6.28;;;7.10;99.90;;;;;;5116501;28;20223;-85
2021/12/14 07:49:08;;;;;;;9.18;5.97;;;7.10;99.90;;;;;;5076043;28;20275;-86
2021/12/14 07:51:42;;;;;;;6.32;5.72;;;7.10;99.90;;;;;;5091543;28;20200;-86
2021/12/14 07:54:14;;;;;;;6.88;5.47;;;7.10;99.90;;;;;;5104580;28;20245;-85
2021/12/14 07:56:47;;;;;;;7.18;6.03;;;7.10;99.90;;;;;;5098402;28;20220;-86
2021/12/14 07:59:22;;;;;;;7.25;6.20;;;7.10;99.90;;;;;;5093600;28;20197;-86
2021/12/14 08:02:08;;;;;;;6.93;6.22;;;7.10;99.90;;;;;;5096487;28;20283;-86
2021/12/14 08:04:39;;;;;;;6.07;5.50;;;7.10;99.90;;;;;;5096744;28;20300;-86
2021/12/14 08:07:08;;;;;;;6.18;5.65;;;7.10;99.90;;;;;;5095868;28;20261;-86
2021/12/14 08:09:47;;;;;;;10.57;6.57;;;7.10;99.90;;;;;;5096367;28;20283;-86
2021/12/14 08:12:38;;;;;;;6.43;5.85;;;7.20;99.90;;;;;;5076130;28;20201;-86
2021/12/14 08:15:19;;;;;;;6.57;5.85;;;7.20;99.90;;;;;;5078227;28;20262;-86
2021/12/14 08:18:01;;;;;;;6.00;5.40;;;7.20;99.90;;;;;;5096115;28;20259;-86
2021/12/14 08:20:30;;;;;;;6.85;6.18;;;7.20;99.90;;;;;;5095912;28;20208;-86
2021/12/14 08:23:12;;;;;;;7.65;6.78;;;7.20;99.90;;;;;;5096407;28;20216;-86
2021/12/14 08:25:42;;;;;;;5.85;5.28;;;7.30;99.90;;;;;;5093143;28;20235;-86
2021/12/14 08:28:12;;;;;;;7.35;5.60;;;7.30;99.90;;;;;;5096487;28;20208;-86
2021/12/14 08:30:52;;;;;;;5.72;5.25;;;7.40;99.90;;;;;;5095899;28;20209;-86
2021/12/14 08:33:25;;;;;;;6.05;5.50;;;7.40;99.90;;;;;;5094801;28;20218;-85
2021/12/14 08:35:56;;;;;;;5.50;4.97;;;7.40;99.90;;;;;;5095565;28;20307;-86
2021/12/14 08:38:26;;;;;;;5.47;4.97;;;7.40;99.90;;;;;;5095938;28;20220;-86
2021/12/14 08:41:00;;;;;;;5.57;5.10;;;7.40;99.90;;;;;;5095458;28;20201;-86
2021/12/14 08:43:34;;;;;;;9.70;5.97;;;7.40;99.90;;;;;;5096085;28;20201;-86
2021/12/14 08:46:06;;;;;;;6.45;5.60;;;7.40;99.90;;;;;;5096244;28;20218;-86
2021/12/14 08:48:40;;;;;;;6.47;5.75;;;7.40;99.90;;;;;;5095787;28;20193;-85
2021/12/14 08:51:15;;;;;;;6.45;5.38;;;7.50;99.90;;;;;;5095997;28;20204;-86
2021/12/14 08:53:46;;;;;;;5.43;4.93;;;7.50;99.90;;;;;;5095808;28;20199;-86
2021/12/14 08:56:17;;;;;;;6.80;5.65;;;7.50;99.90;;;;;;5095588;28;20255;-86
2021/12/14 08:58:47;;;;;;;7.07;4.95;;;7.50;99.90;;;;;;5095632;28;20196;-89
2021/12/14 09:01:20;;;;;;;5.63;5.13;;;7.50;99.90;;;;;;5096115;28;20192;-89
2021/12/14 09:03:56;;;;;;;6.95;4.93;;;7.50;99.90;;;;;;5097263;28;20189;-89
2021/12/14 09:06:30;;;;;;;6.60;5.53;;;7.50;99.90;;;;;;5095169;28;20239;-86
2021/12/14 09:09:02;;;;;;;5.30;4.85;;;7.50;99.90;;;;;;5094942;28;20192;-86
2021/12/14 09:11:35;;;;;;;7.57;4.82;;;7.50;99.90;;;;;;5095352;28;20204;-86
2021/12/14 09:14:05;;;;;;;6.25;5.18;;;7.50;99.90;;;;;;5095468;28;20196;-89
2021/12/14 09:16:35;;;;;;;7.43;5.95;;;7.50;99.90;;;;;;5094968;28;20247;-89
2021/12/14 09:19:09;;;;;;;6.47;5.80;;;7.60;99.90;;;;;;5094690;28;20294;-89
2021/12/14 09:21:40;;;;;;;6.05;5.47;;;7.60;99.90;;;;;;5095200;28;20205;-89
2021/12/14 09:24:12;;;;;;;5.60;5.13;;;7.60;99.90;;;;;;5094860;28;20289;-89
2021/12/14 09:26:44;;;;;;;7.20;5.72;;;7.60;99.90;;;;;;5094986;28;20252;-89
2021/12/14 09:29:18;;;;;;;9.20;5.32;;;7.60;99.90;;;;;;5094519;28;20188;-89
2021/12/14 09:31:49;;;;;;;5.50;5.00;;;7.60;99.90;;;;;;5095073;28;20231;-89
2021/12/14 09:34:22;;;;;;;6.68;5.95;;;7.60;99.90;;;;;;5094824;28;20243;-89
2021/12/14 09:36:51;;;;;;;5.88;5.35;;;7.60;99.90;;;;;;5094872;28;20297;-90
2021/12/14 09:39:24;;;;;;;6.35;5.53;;;7.60;99.90;;;;;;5095204;28;20220;-89
2021/12/14 09:41:53;;;;;;;5.38;4.88;;;7.70;99.90;;;;;;5094057;28;20196;-89
2021/12/14 09:44:25;;;;;;;6.10;5.50;;;7.70;99.90;;;;;;5093776;28;20201;-90
2021/12/14 09:47:04;;;;;;;5.28;4.82;;;7.70;99.90;;;;;;5094211;28;20247;-90
2021/12/14 09:49:34;;;;;;;5.32;4.78;;;7.80;99.90;;;;;;5094774;28;20203;-90
2021/12/14 09:52:06;;;;;;;5.93;5.43;;;7.80;99.90;;;;;;5096454;28;20216;-90
2021/12/14 09:54:36;;;;;;;5.85;4.60;;;7.80;99.90;;;;;;5105547;28;20284;-90
2021/12/14 09:57:07;;;;;;;5.03;4.53;;;7.80;99.90;;;;;;5095127;28;20236;-90
2021/12/14 09:59:37;;;;;;;5.03;4.57;;;7.90;99.90;;;;;;5093164;28;20219;-90
2021/12/14 10:02:11;;;;;;;6.03;5.15;;;8.00;99.90;;;;;;5094396;28;20196;-89
2021/12/14 10:04:45;;;;;;;5.40;4.93;;;8.10;99.90;;;;;;5100171;28;20207;-91
2021/12/14 10:07:13;;;;;;;5.78;5.20;;;8.00;99.90;;;;;;5111055;28;20244;-89
2021/12/14 10:09:48;;;;;;;4.85;4.45;;;8.10;99.90;;;;;;5105096;28;20208;-86
2021/12/14 10:15:07;;;;;;;5.45;4.90;;;8.20;99.90;;;;;;5093650;28;20213;-87
2021/12/14 10:17:39;;;;;;;4.85;4.35;;;8.20;99.90;;;;;;5093569;28;20232;-87
2021/12/14 10:20:12;;;;;;;4.32;3.97;;;8.30;99.90;;;;;;5093630;28;20232;-87
2021/12/14 10:22:40;;;;;;;4.72;4.32;;;8.30;99.90;;;;;;5094002;28;20264;-87
2021/12/14 10:25:12;;;;;;;7.40;5.30;;;8.40;99.90;;;;;;5093768;28;20226;-87
2021/12/14 10:27:42;;;;;;;4.30;4.00;;;8.50;99.90;;;;;;5094181;28;20220;-87
2021/12/14 10:30:18;;;;;;;4.25;3.85;;;8.50;99.90;;;;;;5093672;28;20208;-87
2021/12/14 10:32:46;;;;;;;6.75;5.38;;;8.60;99.90;;;;;;5074608;28;20196;-87
2021/12/14 10:35:23;;;;;;;4.40;4.05;;;8.60;99.90;;;;;;5080928;28;20250;-87
2021/12/14 10:38:12;;;;;;;5.00;4.50;;;8.60;99.90;;;;;;5093822;28;20275;-87
2021/12/14 10:43:30;;;;;;;4.95;3.85;;;8.70;99.90;;;;;;5094017;28;20214;-87
2021/12/14 10:46:02;;;;;;;4.93;4.38;;;8.70;99.90;;;;;;5093494;28;20360;-87
2021/12/14 10:48:37;;;;;;;4.30;3.90;;;8.70;99.90;;;;;;5108862;28;20204;-88
2021/12/14 10:51:10;;;;;;;4.22;3.92;;;8.60;99.90;;;;;;5093924;28;20251;-89
2021/12/14 10:53:43;;;;;;;13.02;4.10;;;8.70;99.90;;;;;;5093448;28;20220;-87
2021/12/14 10:56:36;;;;;;;4.10;3.65;;;8.60;99.90;;;;;;5093624;28;20221;-91
2021/12/14 10:59:07;;;;;;;3.72;3.42;;;8.70;99.90;;;;;;5093057;28;20196;-91
2021/12/14 11:01:38;;;;;;;4.20;3.80;;;8.70;99.90;;;;;;5093394;28;20231;-91
2021/12/14 11:04:11;;;;;;;4.93;4.43;;;8.60;99.90;;;;;;5092483;28;20291;-91
2021/12/14 11:06:45;;;;;;;4.55;4.15;;;8.60;99.90;;;;;;5093448;28;20236;-81
2021/12/14 11:12:15;;;;;;;4.53;3.80;;;8.50;99.90;;;;;;5093167;28;20216;-81
2021/12/14 11:14:46;;;;;;;4.60;4.20;;;8.50;99.90;;;;;;5093169;28;20302;-91
2021/12/14 11:20:10;;;;;;;4.22;3.83;;;8.50;99.90;;;;;;5093065;28;20238;-91
2021/12/14 11:22:49;;;;;;;4.03;3.63;;;8.40;99.90;;;;;;5093248;28;20223;-91
2021/12/14 11:25:38;;;;;;;3.85;3.50;;;8.40;99.90;;;;;;5093007;28;20196;-90
2021/12/14 11:28:10;;;;;;;4.07;3.78;;;8.40;99.90;;;;;;5092635;28;20280;-89
2021/12/14 11:30:42;;;;;;;5.55;4.13;;;8.50;99.90;;;;;;5092689;28;20239;-83
2021/12/14 11:33:17;;;;;;;3.22;3.03;;;8.50;99.90;;;;;;5092751;28;20271;-83
2021/12/14 11:35:48;;;;;;;4.10;3.70;;;8.50;99.90;;;;;;5105509;28;20278;-83
2021/12/14 11:38:32;;;;;;;4.00;3.70;;;8.50;99.90;;;;;;5113415;28;20212;-84
2021/12/14 11:41:04;;;;;;;4.78;4.18;;;8.60;99.90;;;;;;5099622;28;20288;-83
2021/12/14 11:43:33;;;;;;;3.90;3.58;;;8.60;99.90;;;;;;5093156;28;20290;-83
2021/12/14 11:46:07;;;;;;;4.00;3.45;;;8.60;99.90;;;;;;5092827;28;20308;-83
2021/12/14 11:48:38;;;;;;;4.18;3.53;;;8.70;99.90;;;;;;5092610;28;20196;-84
2021/12/14 11:51:10;;;;;;;5.05;4.55;;;8.70;99.90;;;;;;5093543;28;20223;-82
2021/12/14 11:53:50;;;;;;;3.88;3.28;;;8.70;99.90;;;;;;5092809;28;20216;-81
2021/12/14 11:56:22;;;;;;;2.92;2.72;;;8.70;99.90;;;;;;5072505;28;20304;-82
2021/12/14 11:58:55;;;;;;;3.90;3.60;;;8.80;99.90;;;;;;5072201;28;20227;-83
2021/12/14 12:01:28;;;;;;;3.78;3.47;;;8.80;99.90;;;;;;5079962;28;20252;-82
2021/12/14 12:03:59;;;;;;;3.58;3.28;;;8.80;99.90;;;;;;5092997;28;20200;-83
2021/12/14 12:06:45;;;;;;;3.75;3.45;;;8.80;99.90;;;;;;5090957;28;20307;-82
2021/12/14 12:09:28;;;;;;;6.47;3.90;;;8.90;99.90;;;;;;5096117;28;20208;-84
2021/12/14 12:12:01;;;;;;;4.40;4.00;;;8.90;99.90;;;;;;5095876;28;20222;-83
2021/12/14 12:14:32;;;;;;;4.20;3.83;;;9.00;99.90;;;;;;5096127;28;20292;-83
2021/12/14 12:17:11;;;;;;;4.32;4.00;;;9.00;99.90;;;;;;5082169;28;20300;-84
2021/12/14 12:19:41;;;;;;;4.25;3.85;;;9.00;99.90;;;;;;5095907;28;20287;-83
2021/12/14 12:22:15;;;;;;;4.28;3.88;;;9.00;99.90;;;;;;5096293;28;20226;-83
2021/12/14 12:24:48;;;;;;;4.28;3.88;;;9.00;99.90;;;;;;5075525;28;20197;-83
2021/12/14 12:27:32;;;;;;;3.97;3.55;;;9.10;99.90;;;;;;5076137;28;20221;-83
2021/12/14 12:30:32;;;;;;;5.25;4.00;;;9.20;99.90;;;;;;5075477;28;20224;-85
2021/12/14 12:33:28;;;;;;;3.70;3.40;;;9.20;99.90;;;;;;5089536;28;20292;-83
2021/12/14 12:36:01;;;;;;;3.65;3.33;;;9.30;99.90;;;;;;5095650;28;20277;-85
2021/12/14 12:38:49;;;;;;;4.63;3.55;;;9.40;99.90;;;;;;5096149;28;20272;-84
2021/12/14 12:41:32;;;;;;;3.55;3.30;;;9.50;99.90;;;;;;5095971;28;20218;-85
2021/12/14 12:44:06;;;;;;;4.50;3.13;;;9.50;99.90;;;;;;5096361;28;20200;-84
2021/12/14 12:47:01;;;;;;;3.53;3.20;;;9.60;99.90;;;;;;5096142;28;20289;-83
2021/12/14 12:49:33;;;;;;;3.67;2.97;;;9.60;99.90;;;;;;5095367;28;20201;-83
2021/12/14 12:52:19;;;;;;;4.20;3.83;;;9.60;99.90;;;;;;5096177;28;20288;-84
2021/12/14 12:55:10;;;;;;;3.85;2.95;;;9.60;99.90;;;;;;5095780;28;20220;-83
2021/12/14 12:57:45;;;;;;;3.75;3.45;;;9.70;99.90;;;;;;5095181;28;20240;-83
2021/12/14 13:00:29;;;;;;;3.88;3.28;;;9.70;99.90;;;;;;5077713;28;20219;-82
2021/12/14 13:03:04;;;;;;;5.03;3.45;;;9.70;99.90;;;;;;5090200;28;20291;-83
2021/12/14 13:05:37;;;;;;;4.07;3.50;;;9.70;99.90;;;;;;5095251;28;20200;-83
2021/12/14 13:08:15;;;;;;;3.42;3.13;;;9.70;99.90;;;;;;5095735;28;20304;-83
2021/12/14 13:10:46;;;;;;;3.13;2.92;;;9.70;99.90;;;;;;5095459;28;20315;-83
2021/12/14 13:13:18;;;;;;;5.32;3.30;;;9.80;99.90;;;;;;5095123;28;20296;-83
2021/12/14 13:16:01;;;;;;;3.50;3.20;;;9.80;99.90;;;;;;5099882;28;20199;-82
2021/12/14 13:18:50;;;;;;;4.80;4.38;;;9.90;99.90;;;;;;5092379;28;20212;-82
2021/12/14 13:21:38;;;;;;;8.43;6.57;;;9.90;99.90;;;;;;5095866;28;20201;-82
2021/12/14 13:24:16;;;;;;;5.05;4.60;;;9.90;99.90;;;;;;5094887;28;20269;-83
2021/12/14 13:26:57;;;;;;;5.53;5.03;;;9.90;99.90;;;;;;5095723;28;20275;-83
2021/12/14 13:29:50;;;;;;;6.30;5.80;;;9.90;99.90;;;;;;5094746;28;20286;-82
2021/12/14 13:32:25;;;;;;;7.60;6.07;;;10.00;99.90;;;;;;5089754;28;20284;-83
2021/12/14 13:34:58;;;;;;;9.45;7.40;;;10.00;99.90;;;;;;5095647;28;20212;-83
2021/12/14 13:37:29;;;;;;;8.27;7.45;;;10.00;99.90;;;;;;5095362;28;20224;-83
2021/12/14 13:39:59;;;;;;;10.80;7.53;;;10.00;99.90;;;;;;5075247;28;20285;-89
2021/12/14 13:42:43;;;;;;;12.30;7.03;;;10.00;99.90;;;;;;5074644;28;20235;-89
2021/12/14 13:45:17;;;;;;;9.63;7.00;;;9.90;99.90;;;;;;5074729;28;20216;-89
2021/12/14 13:47:46;;;;;;;8.90;7.68;;;9.90;99.90;;;;;;5079499;28;20304;-88
2021/12/14 13:50:19;;;;;;;9.13;7.43;;;9.80;99.90;;;;;;5089291;28;20223;-88
2021/12/14 13:52:48;;;;;;;8.93;7.47;;;9.70;99.90;;;;;;5095372;28;20263;-89
2021/12/14 13:55:35;;;;;;;9.63;8.55;;;9.70;99.90;;;;;;5094482;28;20284;-89
2021/12/14 13:58:08;;;;;;;8.65;7.82;;;9.60;99.90;;;;;;5094632;28;20219;-89
2021/12/14 14:00:43;;;;;;;10.05;6.88;;;9.60;99.90;;;;;;5093896;28;20225;-89
2021/12/14 14:03:13;;;;;;;9.35;7.72;;;9.50;99.90;;;;;;5094599;28;20200;-89
2021/12/14 14:05:43;;;;;;;12.50;9.45;;;9.50;99.90;;;;;;5093727;28;20281;-89